Overview Statistics Trail Chart Weather Telemetry Raw packets
 

This is the latest recevied weather packets stored in our database for station/object DF7ER-12. If no packets are shown the sender has not sent any weather packets the latest 10 day(s).

<< 101 102 103 104 105 106 107 >>
Time Temp. Humidity Pressure Rain* Wind** Luminosity Snow
1787903479 23.33° C 83% 997.7 hPa - - - -
1787903178 23.33° C 80% 998 hPa - - - -
1787902879 22.78° C 80% 998 hPa - - - -
1787902578 22.78° C 83% 997.6 hPa - - - -
1787902278 22.22° C 86% 997.6 hPa - - - -
1787901978 21.67° C 87% 997.5 hPa - - - -
1787901678 21.67° C 87% 997.5 hPa - - - -
1787901378 22.22° C 85% 997.5 hPa - - - -
1787901079 22.22° C 82% 997.6 hPa - - - -
1787900778 22.22° C 82% 997.5 hPa - - - -
1787900479 22.22° C 83% 997.4 hPa - - - -
1787900178 21.67° C 84% 997.4 hPa - - - -
1787899879 22.22° C 83% 997.5 hPa - - - -
1787899587 21.67° C 85% 997.3 hPa - - - -
1787899278 21.11° C 90% 997.2 hPa - - - -
1787898978 21.67° C 87% 997.3 hPa - - - -
1787898678 21.67° C 84% 997.3 hPa - - - -
1787898378 21.67° C 87% 997.4 hPa - - - -
1787898079 21.67° C 87% 997.7 hPa - - - -
1787897778 21.67° C 85% 997.8 hPa - - - -
1787897478 21.67° C 87% 997.5 hPa - - - -
1787897179 21.67° C 86% 997.5 hPa - - - -
1787896878 21.11° C 88% 997.5 hPa - - - -
1787896579 21.67° C 86% 997.6 hPa - - - -
1787896278 21.11° C 88% 997.6 hPa - - - -

* Rain since midnight (hover to see other rain measurements)
** Current wind speed in m/s (hover to see current wind gust speed)